Time;durP1;ratioP1;P1;durP2;ratioP2;P2;SDS_P1;SDS_P2;PMS_P1;PMS_P2;Temp;Humidity;BMP_temperature;BMP_pressure;BME280_temperature;BME280_humidity;BME280_pressure;Samples;Min_cycle;Max_cycle;Signal;HPM_P1;HPM_P2
2022/08/11 00:01:51;;;;;;;6.50;3.80;;;18.90;99.90;;;;;;5050702;28;20446;-68
2022/08/11 00:04:20;;;;;;;6.30;4.10;;;18.90;99.90;;;;;;5050168;28;20099;-69
2022/08/11 00:06:47;;;;;;;4.85;3.65;;;18.80;99.90;;;;;;5050290;28;20064;-69
2022/08/11 00:09:18;;;;;;;9.10;4.45;;;18.80;99.90;;;;;;5050600;28;20056;-69
2022/08/11 00:11:49;;;;;;;7.68;4.53;;;18.80;99.90;;;;;;5050776;28;20090;-68
2022/08/11 00:14:32;;;;;;;7.40;4.65;;;18.80;99.90;;;;;;5050111;28;20052;-69
2022/08/11 00:17:05;;;;;;;10.57;4.63;;;18.70;99.90;;;;;;5050405;28;20528;-69
2022/08/11 00:19:37;;;;;;;7.97;4.47;;;18.70;99.90;;;;;;5050437;28;20047;-69
2022/08/11 00:22:04;;;;;;;6.15;4.68;;;18.70;99.90;;;;;;5050436;28;20037;-69
2022/08/11 00:24:35;;;;;;;11.02;4.68;;;18.70;99.90;;;;;;5050042;28;20095;-69
2022/08/11 00:27:02;;;;;;;7.88;4.93;;;18.60;99.90;;;;;;5048937;28;20041;-69
2022/08/11 00:29:28;;;;;;;5.70;4.63;;;18.60;99.90;;;;;;5050280;28;20048;-69
2022/08/11 00:31:55;;;;;;;6.85;4.70;;;18.60;99.90;;;;;;5050215;28;20464;-69
2022/08/11 00:34:25;;;;;;;6.22;4.47;;;18.50;99.90;;;;;;5050195;28;20040;-69
2022/08/11 00:36:59;;;;;;;7.28;4.40;;;18.50;99.90;;;;;;5050263;28;20047;-69
2022/08/11 00:39:26;;;;;;;9.52;4.50;;;18.50;99.90;;;;;;5050032;28;20032;-68
2022/08/11 00:42:25;;;;;;;9.45;4.90;;;18.50;99.90;;;;;;5050198;28;20041;-68
2022/08/11 00:45:18;;;;;;;7.50;3.95;;;18.40;99.90;;;;;;5050365;28;20033;-69
2022/08/11 00:48:02;;;;;;;8.82;4.78;;;18.50;99.90;;;;;;5053315;28;20048;-69
2022/08/11 00:50:40;;;;;;;7.32;4.65;;;18.50;99.90;;;;;;5052431;28;20041;-68
2022/08/11 00:53:35;;;;;;;9.35;4.45;;;18.50;99.90;;;;;;5049668;28;20036;-69
2022/08/11 00:56:21;;;;;;;5.63;4.45;;;18.50;99.90;;;;;;5050300;28;20072;-68
2022/08/11 00:58:58;;;;;;;7.28;4.53;;;18.50;99.90;;;;;;5050174;28;20041;-68
2022/08/11 01:01:55;;;;;;;7.53;4.20;;;18.50;99.90;;;;;;5050147;28;20045;-69
2022/08/11 01:04:21;;;;;;;6.60;4.22;;;18.50;99.90;;;;;;5049899;28;20097;-69
2022/08/11 01:07:30;;;;;;;6.50;4.90;;;18.50;99.90;;;;;;5050107;28;20432;-68
2022/08/11 01:10:34;;;;;;;8.85;4.88;;;18.50;99.90;;;;;;5050071;28;20037;-68
2022/08/11 01:14:05;;;;;;;6.45;4.10;;;18.40;99.90;;;;;;5025193;28;20087;-68
2022/08/11 01:16:52;;;;;;;10.32;4.72;;;18.40;99.90;;;;;;5050123;28;20041;-68
2022/08/11 01:19:56;;;;;;;6.47;5.00;;;18.50;99.90;;;;;;5053418;28;20045;-68
2022/08/11 01:23:18;;;;;;;9.65;5.40;;;18.40;99.90;;;;;;5053443;28;20045;-68
2022/08/11 01:26:02;;;;;;;8.25;4.80;;;18.30;99.90;;;;;;5053898;28;20128;-69
2022/08/11 01:29:05;;;;;;;9.80;5.25;;;18.30;99.90;;;;;;5053706;28;20049;-68
2022/08/11 01:31:49;;;;;;;;;;;18.20;99.90;;;;;;5053030;28;20057;-69
2022/08/11 01:34:26;;;;;;;8.68;4.70;;;18.20;99.90;;;;;;5053072;28;20387;-68
2022/08/11 01:37:32;;;;;;;6.55;5.05;;;18.30;99.90;;;;;;5052087;28;20056;-69
2022/08/11 01:40:20;;;;;;;7.75;5.15;;;18.20;99.90;;;;;;5053327;28;20090;-68
2022/08/11 01:46:19;;;;;;;11.07;5.28;;;18.10;99.90;;;;;;5053404;28;20048;-68
2022/08/11 01:49:08;;;;;;;8.25;5.90;;;18.10;99.90;;;;;;5053361;28;20043;-68
2022/08/11 01:52:03;;;;;;;7.75;5.90;;;18.00;99.90;;;;;;5053377;28;20055;-69
2022/08/11 01:54:45;;;;;;;10.32;6.32;;;18.10;99.90;;;;;;5072669;28;20037;-68
2022/08/11 01:57:24;;;;;;;9.27;5.45;;;18.10;99.90;;;;;;5064175;28;20041;-69
2022/08/11 01:59:58;;;;;;;12.38;6.18;;;18.10;99.90;;;;;;5053488;28;20045;-68
2022/08/11 02:02:44;;;;;;;9.15;5.78;;;18.10;99.90;;;;;;5053127;28;20068;-68
2022/08/11 02:05:38;;;;;;;6.82;5.35;;;17.90;99.90;;;;;;5053048;28;20071;-69
2022/08/11 02:08:35;;;;;;;8.40;5.28;;;17.80;99.90;;;;;;5052996;28;20060;-68
2022/08/11 02:14:28;;;;;;;9.83;5.63;;;17.70;99.90;;;;;;5052799;28;20452;-68
2022/08/11 02:17:18;;;;;;;10.70;6.32;;;17.70;99.90;;;;;;5052704;28;20045;-69
2022/08/11 02:26:04;;;;;;;8.38;6.72;;;17.70;99.90;;;;;;5051147;28;20053;-68
2022/08/11 02:28:59;;;;;;;10.73;6.55;;;17.60;99.90;;;;;;5052421;28;20118;-69
2022/08/11 02:34:59;;;;;;;10.38;6.00;;;17.60;99.90;;;;;;5050728;28;20049;-69
2022/08/11 02:37:49;;;;;;;10.15;6.57;;;17.60;99.90;;;;;;5052505;28;20401;-69
2022/08/11 02:40:30;;;;;;;12.07;6.78;;;17.50;99.90;;;;;;5052183;28;20164;-69
2022/08/11 02:43:25;;;;;;;12.13;6.63;;;17.40;99.90;;;;;;5052216;28;20525;-68
2022/08/11 02:46:14;;;;;;;9.23;6.97;;;17.40;99.90;;;;;;5052215;28;20504;-68
2022/08/11 02:51:54;;;;;;;13.32;6.47;;;17.40;99.90;;;;;;5052239;28;20470;-69
2022/08/11 02:54:44;;;;;;;14.00;7.30;;;17.30;99.90;;;;;;5051600;28;20552;-69
2022/08/11 02:57:16;;;;;;;9.00;6.30;;;17.40;99.90;;;;;;5051739;28;20115;-68
2022/08/11 02:59:52;;;;;;;11.10;6.95;;;17.40;99.90;;;;;;5051752;28;20049;-69
2022/08/11 03:02:37;;;;;;;13.20;7.38;;;17.30;99.90;;;;;;5068016;28;20041;-68
2022/08/11 03:05:09;;;;;;;10.20;6.93;;;17.30;99.90;;;;;;5058739;28;20056;-69
2022/08/11 03:08:05;;;;;;;9.75;7.15;;;17.20;99.90;;;;;;5051724;28;20052;-68
2022/08/11 03:10:42;;;;;;;11.88;7.75;;;17.20;99.90;;;;;;5051671;28;20044;-68
2022/08/11 03:16:45;;;;;;;12.70;7.88;;;17.20;99.90;;;;;;5051631;28;20128;-68
2022/08/11 03:19:17;;;;;;;13.82;7.10;;;17.20;99.90;;;;;;5051625;28;20447;-69
2022/08/11 03:21:57;;;;;;;10.00;7.37;;;17.10;99.90;;;;;;5051546;28;20076;-69
2022/08/11 03:24:53;;;;;;;14.52;7.93;;;17.20;99.90;;;;;;5051339;28;20094;-68
2022/08/11 03:27:31;;;;;;;14.20;7.68;;;17.10;99.90;;;;;;5047847;28;20072;-68
2022/08/11 03:30:09;;;;;;;12.48;8.55;;;17.00;99.90;;;;;;5051618;28;20059;-69
2022/08/11 03:34:00;;;;;;;10.32;7.60;;;17.10;99.90;;;;;;5050948;28;20124;-69
2022/08/11 03:35:40;;;;;;;11.43;8.52;;;17.20;99.90;;;;;;5051186;28;20132;-68
2022/08/11 03:38:13;;;;;;;9.93;7.80;;;17.10;99.90;;;;;;5051323;28;20045;-69
2022/08/11 03:43:53;;;;;;;9.30;8.05;;;17.20;99.90;;;;;;5051138;28;20053;-69
2022/08/11 03:46:44;;;;;;;14.45;7.85;;;17.30;99.90;;;;;;5051211;28;20041;-69
2022/08/11 03:49:34;;;;;;;11.95;8.13;;;17.20;99.90;;;;;;5050030;28;20057;-69
2022/08/11 03:52:26;;;;;;;11.27;8.25;;;17.20;99.90;;;;;;5051247;28;20052;-68
2022/08/11 03:54:55;;;;;;;13.10;8.52;;;17.20;99.90;;;;;;5051062;28;20040;-69
2022/08/11 03:57:48;;;;;;;13.50;9.07;;;17.20;99.90;;;;;;5050792;28;20199;-68
2022/08/11 04:00:51;;;;;;;9.80;7.38;;;17.20;99.90;;;;;;5051058;28;20041;-69
2022/08/11 04:03:36;;;;;;;;;;;17.20;99.90;;;;;;5050220;28;20094;-68
2022/08/11 04:06:11;;;;;;;14.65;9.00;;;17.20;99.90;;;;;;5047612;28;19974;-69
2022/08/11 04:09:02;;;;;;;14.18;8.90;;;17.00;99.90;;;;;;5048115;28;20048;-69
2022/08/11 04:11:46;;;;;;;16.23;8.68;;;17.00;99.90;;;;;;5057548;28;20538;-68
2022/08/11 04:17:39;;;;;;;12.80;8.82;;;17.10;99.90;;;;;;5049880;28;20045;-68
2022/08/11 04:20:39;;;;;;;11.52;8.40;;;16.90;99.90;;;;;;5049898;28;20037;-68
2022/08/11 04:23:43;;;;;;;13.02;8.90;;;16.90;99.90;;;;;;5050290;28;20477;-68
2022/08/11 04:26:33;;;;;;;14.30;9.10;;;16.80;99.90;;;;;;5050526;28;20047;-69
2022/08/11 04:29:24;;;;;;;11.75;9.10;;;16.80;99.90;;;;;;5050523;28;20374;-69
2022/08/11 04:31:52;;;;;;;15.05;9.85;;;16.70;99.90;;;;;;5050658;28;20576;-68
2022/08/11 04:34:31;;;;;;;13.60;8.80;;;16.70;99.90;;;;;;5050361;28;20040;-68
2022/08/11 04:37:35;;;;;;;14.70;9.43;;;16.60;99.90;;;;;;5049207;28;20117;-68
2022/08/11 04:40:38;;;;;;;14.35;10.35;;;16.70;99.90;;;;;;5047872;28;20049;-68
2022/08/11 04:43:31;;;;;;;14.65;10.05;;;16.60;99.90;;;;;;5049482;28;20048;-68
2022/08/11 04:46:17;;;;;;;15.75;10.45;;;16.60;99.90;;;;;;5049902;28;20102;-68
2022/08/11 05:02:16;;;;;;;14.43;10.18;;;16.70;99.90;;;;;;5030440;28;20065;-68
2022/08/11 05:05:32;;;;;;;15.10;9.52;;;16.80;99.90;;;;;;4994097;28;20083;-69
2022/08/11 05:08:32;;;;;;;17.52;10.27;;;16.80;99.90;;;;;;5028485;28;20406;-68
2022/08/11 05:11:19;;;;;;;16.80;10.88;;;16.90;99.90;;;;;;5030233;28;20037;-68
2022/08/11 05:36:46;;;;;;;12.07;9.60;;;18.10;99.90;;;;;;5053439;28;20072;-69
2022/08/11 05:58:42;;;;;;;11.70;8.63;;;18.90;99.90;;;;;;5053179;28;20545;-69
2022/08/11 06:01:13;;;;;;;10.98;8.57;;;19.00;99.90;;;;;;5053282;28;20076;-68
2022/08/11 06:06:28;;;;;;;10.30;8.70;;;19.10;99.90;;;;;;5053201;28;20120;-68
2022/08/11 06:08:56;;;;;;;11.23;9.18;;;19.10;99.90;;;;;;5052739;28;20106;-68
2022/08/11 06:11:24;;;;;;;11.02;8.98;;;19.30;99.90;;;;;;5053057;28;20449;-68
2022/08/11 06:13:51;;;;;;;14.07;8.88;;;19.40;99.90;;;;;;5052699;28;20048;-71
2022/08/11 06:16:23;;;;;;;13.25;8.30;;;19.50;99.90;;;;;;5053441;28;20072;-71
2022/08/11 06:18:49;;;;;;;;;;;19.40;99.90;;;;;;5053992;28;20045;-69
2022/08/11 06:21:16;;;;;;;12.23;8.32;;;19.40;99.90;;;;;;5052510;28;19985;-69
2022/08/11 06:23:42;;;;;;;13.25;8.55;;;19.60;99.90;;;;;;5055579;28;20066;-69
2022/08/11 06:26:13;;;;;;;10.70;8.30;;;19.70;99.90;;;;;;5073059;28;20037;-70
2022/08/11 06:28:43;;;;;;;12.80;8.27;;;19.80;99.90;;;;;;5058519;28;20192;-70
2022/08/11 06:31:18;;;;;;;11.52;7.95;;;19.90;99.90;;;;;;5051605;28;20055;-70
2022/08/11 06:34:00;;;;;;;11.90;7.97;;;19.90;99.90;;;;;;5051754;28;20098;-70
2022/08/11 06:36:41;;;;;;;11.85;7.72;;;20.00;99.90;;;;;;5051928;28;20094;-70
2022/08/11 06:39:21;;;;;;;11.15;7.63;;;20.10;99.90;;;;;;5051705;28;20048;-70
2022/08/11 06:42:05;;;;;;;10.07;6.90;;;20.10;99.90;;;;;;5033682;28;20049;-70
2022/08/11 06:44:38;;;;;;;10.55;7.57;;;20.20;99.90;;;;;;5051114;28;20049;-70
2022/08/11 06:47:14;;;;;;;12.43;6.82;;;20.30;99.90;;;;;;5051664;28;20049;-70
2022/08/11 06:52:36;;;;;;;7.07;5.97;;;20.50;99.90;;;;;;5051203;28;20049;-70
2022/08/11 06:55:11;;;;;;;9.88;6.75;;;20.60;99.90;;;;;;5051525;28;20096;-70
2022/08/11 07:00:28;;;;;;;10.95;6.15;;;20.70;99.90;;;;;;5051726;28;20069;-71
2022/08/11 07:03:09;;;;;;;7.28;5.82;;;20.70;99.90;;;;;;5050980;28;20095;-71
2022/08/11 07:05:54;;;;;;;10.02;5.82;;;20.90;99.90;;;;;;5051228;28;20128;-72
2022/08/11 07:17:41;;;;;;;9.52;4.70;;;21.40;99.90;;;;;;5071685;28;20052;-73
2022/08/11 07:28:57;;;;;;;6.15;4.30;;;21.90;99.90;;;;;;5071857;28;20524;-71
2022/08/11 07:31:34;;;;;;;7.18;3.42;;;22.10;99.90;;;;;;5075613;28;20117;-70
2022/08/11 07:34:12;;;;;;;5.30;3.10;;;22.10;99.90;;;;;;5090857;28;20208;-71
2022/08/11 07:36:48;;;;;;;5.20;3.20;;;22.30;99.90;;;;;;5075408;28;20076;-71
2022/08/11 07:39:23;;;;;;;6.20;3.10;;;22.40;99.90;;;;;;5072075;28;20043;-71
2022/08/11 07:41:51;;;;;;;9.48;2.63;;;22.40;99.90;;;;;;5072376;28;20504;-71
2022/08/11 07:44:17;;;;;;;4.82;2.40;;;22.50;99.90;;;;;;5072004;28;20053;-71
2022/08/11 07:52:29;;;;;;;5.30;1.92;;;23.00;99.90;;;;;;5072363;28;20128;-71
2022/08/11 07:54:57;;;;;;;6.15;1.80;;;23.00;99.90;;;;;;5072009;28;20673;-71
2022/08/11 08:19:23;;;;;;;6.65;1.55;;;23.80;99.90;;;;;;5071565;28;20501;-71
2022/08/11 08:21:49;;;;;;;3.25;1.73;;;23.90;99.90;;;;;;5071691;28;20051;-71
2022/08/11 08:24:18;;;;;;;6.00;1.77;;;24.10;99.90;;;;;;5053218;28;20052;-71
2022/08/11 08:27:00;;;;;;;3.08;1.45;;;24.10;99.90;;;;;;5071720;28;20484;-71
2022/08/11 08:32:19;;;;;;;5.82;1.60;;;24.30;99.90;;;;;;5070830;28;20048;-71
2022/08/11 08:34:45;;;;;;;3.47;1.40;;;24.50;99.90;;;;;;5071639;28;20044;-71
2022/08/11 08:37:12;;;;;;;4.43;1.60;;;24.50;99.90;;;;;;5073500;28;20040;-70
2022/08/11 08:39:38;;;;;;;4.55;1.80;;;24.60;99.90;;;;;;5077545;28;20052;-71
2022/08/11 08:42:16;;;;;;;2.30;1.55;;;24.90;99.90;;;;;;5085585;28;20040;-71
2022/08/11 08:44:45;;;;;;;3.95;1.15;;;24.90;99.90;;;;;;5076926;28;20045;-71
2022/08/11 08:47:15;;;;;;;4.32;1.50;;;25.00;99.90;;;;;;5071816;28;20056;-71
2022/08/11 08:49:48;;;;;;;2.35;1.25;;;25.10;99.90;;;;;;5071509;28;20047;-71
2022/08/11 08:52:17;;;;;;;3.08;1.85;;;25.10;99.90;;;;;;5072106;28;20052;-71
2022/08/11 08:54:44;;;;;;;2.90;1.90;;;25.20;99.90;;;;;;5071380;28;20059;-71
2022/08/11 08:57:12;;;;;;;6.38;1.88;;;25.30;99.90;;;;;;5071667;28;20392;-71
2022/08/11 08:59:44;;;;;;;3.17;1.30;;;25.60;98.40;;;;;;5071514;28;20036;-71
2022/08/11 09:02:11;;;;;;;4.93;1.48;;;25.50;98.10;;;;;;5071913;28;20120;-71
2022/08/11 09:04:38;;;;;;;4.78;1.60;;;25.60;98.80;;;;;;5071461;28;20036;-71
2022/08/11 09:07:14;;;;;;;3.60;1.20;;;25.70;97.70;;;;;;5071677;28;20044;-71
2022/08/11 09:09:44;;;;;;;4.97;1.40;;;25.70;97.60;;;;;;5071233;28;20043;-71
2022/08/11 09:12:11;;;;;;;4.70;1.70;;;25.70;98.00;;;;;;5071248;28;20071;-71
2022/08/11 09:17:29;;;;;;;3.70;1.70;;;26.00;97.40;;;;;;5071559;28;20109;-71
2022/08/11 09:20:08;;;;;;;6.97;1.60;;;26.10;96.80;;;;;;5071072;28;20385;-71
2022/08/11 09:28:11;;;;;;;5.88;1.95;;;26.30;94.90;;;;;;5071826;28;20053;-71
2022/08/11 09:30:41;;;;;;;6.07;2.17;;;26.30;95.20;;;;;;5071690;28;20045;-71
2022/08/11 09:33:08;;;;;;;2.05;1.70;;;26.40;94.90;;;;;;5070912;28;20037;-71
2022/08/11 09:35:37;;;;;;;1.85;1.40;;;26.30;95.00;;;;;;5070890;28;20524;-71
2022/08/11 09:40:50;;;;;;;7.60;1.75;;;26.40;93.50;;;;;;5075223;28;20493;-71
2022/08/11 09:46:03;;;;;;;3.53;1.58;;;26.50;94.30;;;;;;5075381;28;20041;-71
2022/08/11 09:48:38;;;;;;;4.40;1.55;;;26.60;94.00;;;;;;5088270;28;20082;-71
2022/08/11 09:51:06;;;;;;;2.60;1.50;;;26.70;92.60;;;;;;5085856;28;20492;-71
2022/08/11 09:53:36;;;;;;;6.40;1.60;;;26.70;93.20;;;;;;5075635;28;20127;-71
2022/08/11 09:58:12;;;;;;;6.95;1.77;;;26.80;92.90;;;;;;5075464;28;20381;-71
2022/08/11 09:58:49;;;;;;;6.22;1.77;;;26.80;92.90;;;;;;5074842;28;20057;-71
2022/08/11 10:01:25;;;;;;;4.65;1.50;;;26.90;91.30;;;;;;5074587;28;20051;-71
2022/08/11 10:04:09;;;;;;;3.72;1.52;;;26.90;91.80;;;;;;5074060;28;20056;-71
2022/08/11 10:09:23;;;;;;;8.63;1.58;;;27.00;91.10;;;;;;5074541;28;20083;-71
2022/08/11 10:11:54;;;;;;;1.50;1.05;;;27.00;91.50;;;;;;5074502;28;20047;-71
2022/08/11 10:17:07;;;;;;;3.17;1.15;;;27.10;90.70;;;;;;5074317;28;20044;-71
2022/08/11 10:19:37;;;;;;;4.18;1.65;;;27.20;91.00;;;;;;5073625;28;20044;-71
2022/08/11 10:27:33;;;;;;;6.22;1.30;;;27.30;90.00;;;;;;5074637;28;20428;-71
2022/08/11 10:35:31;;;;;;;4.53;1.48;;;27.40;88.70;;;;;;5074653;28;20044;-70
2022/08/11 10:37:58;;;;;;;2.80;1.40;;;27.50;88.90;;;;;;5074226;28;20052;-69
2022/08/11 10:40:24;;;;;;;5.18;1.38;;;27.60;89.70;;;;;;5073047;28;20434;-71
2022/08/11 10:43:11;;;;;;;6.15;1.40;;;27.60;87.30;;;;;;5074040;28;20036;-71
2022/08/11 10:48:30;;;;;;;6.55;1.67;;;27.70;87.50;;;;;;5069029;28;20417;-71
2022/08/11 10:51:13;;;;;;;;;;;27.60;85.20;;;;;;5058208;28;20124;-71
2022/08/11 10:59:25;;;;;;;5.18;1.30;;;27.80;86.50;;;;;;5060945;28;20045;-71
2022/08/11 11:01:53;;;;;;;2.38;1.38;;;27.90;85.00;;;;;;5052307;28;20041;-71
2022/08/11 11:04:55;;;;;;;4.30;1.75;;;28.00;86.20;;;;;;5052410;28;20044;-68
2022/08/11 11:07:25;;;;;;;4.32;1.40;;;28.30;85.20;;;;;;5052556;28;20043;-69
2022/08/11 11:10:01;;;;;;;2.88;1.23;;;28.30;85.50;;;;;;5050109;28;20044;-72
2022/08/11 11:18:19;;;;;;;3.70;1.50;;;28.50;83.40;;;;;;5053806;28;20040;-71
2022/08/11 11:20:56;;;;;;;8.93;1.27;;;28.40;80.00;;;;;;5060400;28;20033;-71
2022/08/11 11:23:31;;;;;;;2.60;1.40;;;28.60;82.40;;;;;;5066691;28;20478;-71
2022/08/11 11:26:23;;;;;;;2.42;1.13;;;28.60;79.00;;;;;;5071550;28;20076;-71
2022/08/11 11:29:06;;;;;;;2.38;0.82;;;28.50;79.40;;;;;;5069577;28;20043;-71
2022/08/11 11:50:29;;;;;;;2.38;1.20;;;28.80;79.10;;;;;;5049998;28;20114;-71
2022/08/11 11:52:57;;;;;;;2.45;1.20;;;28.80;78.30;;;;;;5049494;28;20044;-70
2022/08/11 11:55:24;;;;;;;2.35;1.30;;;28.80;78.40;;;;;;5050571;28;20086;-70
2022/08/11 12:03:25;;;;;;;2.17;1.23;;;28.70;78.20;;;;;;5054345;28;20048;-70
2022/08/11 12:05:52;;;;;;;4.35;1.30;;;28.80;78.50;;;;;;5068746;28;20032;-70
2022/08/11 12:08:20;;;;;;;4.07;1.30;;;28.80;78.70;;;;;;5057570;28;20130;-71
2022/08/11 12:13:43;;;;;;;2.17;1.08;;;28.90;76.10;;;;;;5049724;28;20056;-71
2022/08/11 12:16:12;;;;;;;4.03;1.88;;;28.90;76.50;;;;;;5048761;28;20512;-71
2022/08/11 12:18:40;;;;;;;4.28;1.20;;;28.80;76.20;;;;;;5050022;28;20078;-71
2022/08/11 12:21:07;;;;;;;3.72;1.05;;;28.90;77.20;;;;;;5049847;28;20058;-70
2022/08/11 12:29:08;;;;;;;2.65;1.25;;;29.10;76.20;;;;;;5049826;28;20049;-70
2022/08/11 12:31:34;;;;;;;1.65;1.10;;;29.00;75.00;;;;;;5050026;28;20045;-70
2022/08/11 12:34:02;;;;;;;1.33;1.17;;;29.20;75.30;;;;;;5053247;28;20048;-71
2022/08/11 12:36:32;;;;;;;3.35;1.00;;;29.10;74.30;;;;;;5051285;28;20469;-71
2022/08/11 12:38:58;;;;;;;1.98;1.00;;;29.00;74.10;;;;;;5050076;28;20036;-70
2022/08/11 12:46:58;;;;;;;2.45;1.33;;;29.20;74.30;;;;;;5049083;28;20140;-70
2022/08/11 12:52:21;;;;;;;15.68;1.58;;;29.10;72.50;;;;;;5047238;28;20053;-70
2022/08/11 12:55:12;;;;;;;2.75;1.30;;;29.00;71.10;;;;;;5048817;28;20124;-70
2022/08/11 13:06:15;;;;;;;2.38;1.20;;;29.00;70.70;;;;;;5027673;28;20447;-70
2022/08/11 13:08:42;;;;;;;3.47;0.82;;;28.90;70.90;;;;;;5027760;28;20045;-70
2022/08/11 13:13:55;;;;;;;3.70;1.15;;;28.80;68.90;;;;;;5052096;28;20083;-70
2022/08/11 13:16:30;;;;;;;7.78;1.10;;;29.00;70.00;;;;;;5042710;28;20054;-70
2022/08/11 13:18:59;;;;;;;4.80;1.17;;;29.20;68.80;;;;;;5031271;28;20045;-70
2022/08/11 13:21:26;;;;;;;2.03;1.05;;;29.20;67.10;;;;;;5031137;28;20049;-70
2022/08/11 13:23:54;;;;;;;11.85;1.17;;;29.30;68.70;;;;;;5014651;28;20053;-70
2022/08/11 13:26:22;;;;;;;7.90;1.50;;;29.20;68.20;;;;;;5030814;28;20081;-70
2022/08/11 13:28:50;;;;;;;8.68;1.25;;;29.40;68.20;;;;;;5030696;28;20494;-70
2022/08/11 13:31:16;;;;;;;1.63;0.88;;;29.20;67.30;;;;;;5030653;28;20130;-70
2022/08/11 13:33:50;;;;;;;3.42;1.15;;;29.30;67.10;;;;;;5030150;28;20049;-70
2022/08/11 13:36:19;;;;;;;3.33;0.98;;;29.30;66.90;;;;;;5041407;28;20159;-70
2022/08/11 13:38:45;;;;;;;3.00;1.13;;;29.20;66.40;;;;;;5051847;28;20037;-69
2022/08/11 13:43:56;;;;;;;9.32;1.50;;;29.20;67.40;;;;;;5052665;28;20040;-69
2022/08/11 13:46:23;;;;;;;10.93;1.20;;;29.30;67.30;;;;;;5052950;28;20606;-69
2022/08/11 13:48:53;;;;;;;1.85;0.88;;;29.30;66.30;;;;;;5052870;28;20040;-69
2022/08/11 13:51:30;;;;;;;1.95;0.90;;;29.20;66.30;;;;;;5052846;28;20041;-69
2022/08/11 13:54:09;;;;;;;1.83;0.98;;;29.30;66.60;;;;;;5052350;28;20032;-69
2022/08/11 13:56:38;;;;;;;2.60;0.95;;;29.50;66.80;;;;;;5052631;28;20631;-69
2022/08/11 13:59:07;;;;;;;3.35;1.10;;;29.40;67.10;;;;;;5051039;28;20037;-69
2022/08/11 14:01:40;;;;;;;0.93;0.80;;;29.30;67.00;;;;;;5052882;28;20033;-69
2022/08/11 14:04:13;;;;;;;1.75;1.20;;;29.40;66.00;;;;;;5052329;28;20036;-69
2022/08/11 14:06:49;;;;;;;4.20;0.90;;;29.40;66.10;;;;;;5052530;28;20041;-69
2022/08/11 14:09:21;;;;;;;2.97;0.90;;;29.30;64.90;;;;;;5052599;28;20040;-69
2022/08/11 14:14:34;;;;;;;4.05;0.85;;;29.40;66.50;;;;;;5051899;28;20496;-69
2022/08/11 14:17:07;;;;;;;4.30;0.98;;;29.40;65.50;;;;;;5052412;28;20055;-69
2022/08/11 14:19:38;;;;;;;2.75;0.88;;;29.40;65.30;;;;;;5052272;28;20037;-69
2022/08/11 14:22:08;;;;;;;3.03;0.90;;;29.40;65.90;;;;;;5066105;28;20048;-69
2022/08/11 14:24:41;;;;;;;1.70;0.90;;;29.40;65.90;;;;;;5058587;28;20051;-69
2022/08/11 14:27:10;;;;;;;5.03;1.10;;;29.60;65.40;;;;;;5052435;28;20051;-69
2022/08/11 14:29:38;;;;;;;1.35;0.90;;;29.70;65.40;;;;;;5050743;28;20045;-69
2022/08/11 14:32:06;;;;;;;3.85;1.05;;;29.70;65.50;;;;;;5052146;28;20087;-69
2022/08/11 14:34:33;;;;;;;4.25;0.95;;;29.60;64.70;;;;;;5051838;28;20036;-69
2022/08/11 14:37:14;;;;;;;3.47;1.00;;;29.50;64.20;;;;;;5052153;28;20045;-69
2022/08/11 14:39:43;;;;;;;5.35;1.00;;;29.50;64.50;;;;;;5050580;28;20073;-69
2022/08/11 14:47:51;;;;;;;;;;;29.40;64.80;;;;;;5041637;28;20060;-71
2022/08/11 14:50:23;;;;;;;5.07;1.20;;;29.60;63.80;;;;;;5051849;28;19917;-70
2022/08/11 14:52:58;;;;;;;4.82;0.90;;;29.60;64.30;;;;;;5051486;28;20076;-70
2022/08/11 14:58:16;;;;;;;5.47;1.10;;;29.50;64.60;;;;;;5051700;28;20462;-70
2022/08/11 15:00:42;;;;;;;3.63;0.90;;;29.50;65.00;;;;;;5051478;28;20037;-70
2022/08/11 15:03:11;;;;;;;5.20;1.20;;;29.60;66.10;;;;;;5050039;28;20098;-70
2022/08/11 15:05:58;;;;;;;4.25;1.00;;;29.60;65.80;;;;;;5051290;28;20048;-70
2022/08/11 15:14:05;;;;;;;1.15;0.98;;;29.40;65.80;;;;;;5051019;28;20049;-70
2022/08/11 15:19:19;;;;;;;7.43;1.20;;;29.40;66.90;;;;;;5051510;28;20128;-71
2022/08/11 15:24:32;;;;;;;3.38;0.98;;;29.30;67.80;;;;;;5049471;28;20127;-70
2022/08/11 15:38:05;;;;;;;3.72;1.20;;;29.30;67.00;;;;;;5050353;28;20096;-69
2022/08/11 15:46:32;;;;;;;3.75;1.30;;;29.30;67.60;;;;;;5050861;28;20127;-71
2022/08/11 15:49:07;;;;;;;9.23;1.50;;;29.30;67.40;;;;;;5050675;28;20400;-71
2022/08/11 15:51:36;;;;;;;6.13;1.52;;;29.20;67.60;;;;;;5050625;28;20052;-70
2022/08/11 15:54:11;;;;;;;4.53;1.20;;;29.20;67.60;;;;;;5050096;28;20112;-71
2022/08/11 15:56:43;;;;;;;1.92;1.00;;;29.20;68.20;;;;;;5050550;28;20045;-70
2022/08/11 16:04:44;;;;;;;1.48;1.20;;;29.30;67.20;;;;;;5050212;28;20073;-70
2022/08/11 16:07:13;;;;;;;3.42;1.20;;;29.30;66.80;;;;;;5050717;28;20059;-70
2022/08/11 16:10:06;;;;;;;1.77;1.10;;;29.40;66.80;;;;;;5050661;28;20102;-70
2022/08/11 16:12:36;;;;;;;4.72;1.27;;;29.30;67.30;;;;;;5048864;28;20056;-70
2022/08/11 16:17:52;;;;;;;2.35;0.88;;;29.20;66.90;;;;;;5050172;28;20053;-70
2022/08/11 16:20:24;;;;;;;3.78;1.10;;;29.10;67.60;;;;;;5032091;28;20033;-70
2022/08/11 16:22:53;;;;;;;7.97;1.30;;;29.10;67.30;;;;;;5049935;28;20076;-70
2022/08/11 16:25:21;;;;;;;2.63;1.10;;;29.20;68.00;;;;;;5048694;28;20128;-70
2022/08/11 16:27:52;;;;;;;2.90;1.23;;;29.20;68.20;;;;;;5050001;28;20453;-70
2022/08/11 16:30:18;;;;;;;6.18;1.40;;;29.10;68.80;;;;;;5050310;28;20071;-70
2022/08/11 16:32:50;;;;;;;2.30;1.30;;;29.10;69.10;;;;;;5048897;28;20510;-70
2022/08/11 16:38:38;;;;;;;1.70;1.10;;;29.10;69.90;;;;;;5042611;28;20706;-70
2022/08/11 16:41:14;;;;;;;2.92;1.20;;;29.10;69.30;;;;;;5052515;28;20370;-70
2022/08/11 16:49:23;;;;;;;5.93;1.20;;;29.00;69.60;;;;;;5053433;28;20041;-70
2022/08/11 16:51:49;;;;;;;2.47;1.05;;;28.90;69.20;;;;;;5053937;28;20041;-70
2022/08/11 16:54:15;;;;;;;1.50;1.10;;;28.90;69.50;;;;;;5051283;28;20118;-70
2022/08/11 16:56:48;;;;;;;4.13;1.52;;;28.80;69.60;;;;;;5063604;28;20415;-70
2022/08/11 16:59:35;;;;;;;4.82;1.30;;;28.80;69.50;;;;;;5092706;28;20058;-70
2022/08/11 17:02:07;;;;;;;5.13;1.20;;;28.80;69.70;;;;;;5094109;28;20093;-70
2022/08/11 17:13:34;;;;;;;3.47;1.17;;;28.60;70.70;;;;;;5050546;28;20053;-70
2022/08/11 17:16:10;;;;;;;2.28;1.20;;;28.60;70.50;;;;;;5050805;28;20051;-70
2022/08/11 17:18:39;;;;;;;2.55;1.20;;;28.50;70.40;;;;;;5034073;28;20061;-70
2022/08/11 17:21:06;;;;;;;1.75;1.00;;;28.50;70.60;;;;;;5050401;28;20520;-70
2022/08/11 17:23:48;;;;;;;5.07;1.50;;;28.50;70.60;;;;;;5050468;28;20041;-70
2022/08/11 17:26:19;;;;;;;5.53;1.48;;;28.40;70.10;;;;;;5050581;28;20503;-69
2022/08/11 17:28:50;;;;;;;4.10;1.20;;;28.40;70.30;;;;;;5050601;28;20049;-70
2022/08/11 17:36:52;;;;;;;3.80;1.50;;;28.30;70.80;;;;;;5029249;28;20417;-70
2022/08/11 17:39:19;;;;;;;5.97;1.58;;;28.20;70.70;;;;;;5029329;28;20136;-70
2022/08/11 17:50:02;;;;;;;4.93;1.70;;;28.10;71.20;;;;;;5067048;28;20036;-70
2022/08/11 18:00:44;;;;;;;2.58;1.85;;;27.90;70.20;;;;;;5050298;28;20045;-70
2022/08/11 18:03:31;;;;;;;2.92;1.42;;;27.90;70.70;;;;;;5072437;28;20052;-70
2022/08/11 18:05:58;;;;;;;5.63;1.38;;;27.80;70.80;;;;;;5052619;28;20437;-70
